Time;durP1;ratioP1;P1;durP2;ratioP2;P2;SDS_P1;SDS_P2;PMS_P1;PMS_P2;Temp;Humidity;BMP_temperature;BMP_pressure;BME280_temperature;BME280_humidity;BME280_pressure;Samples;Min_cycle;Max_cycle;Signal;HPM_P1;HPM_P2
2022/12/30 00:00:56;;;;;;;19.52;4.22;;;6.20;99.90;;;;;;5050545;28;20063;-60
2022/12/30 00:03:21;;;;;;;22.30;3.75;;;6.20;99.90;;;;;;5056280;28;20091;-60
2022/12/30 00:05:47;;;;;;;26.33;3.65;;;6.10;99.90;;;;;;5051053;28;20064;-60
2022/12/30 00:10:57;;;;;;;22.30;3.90;;;6.10;99.90;;;;;;5054420;28;20120;-60
2022/12/30 00:33:06;;;;;;;27.13;3.72;;;5.90;99.90;;;;;;5054236;28;20037;-59
2022/12/30 00:35:32;;;;;;;22.80;3.70;;;5.90;99.90;;;;;;5052669;28;20131;-59
2022/12/30 00:37:58;;;;;;;22.60;3.80;;;5.90;99.90;;;;;;5059163;28;20511;-60
2022/12/30 00:40:24;;;;;;;26.08;4.10;;;5.90;99.90;;;;;;5053452;28;20065;-59
2022/12/30 00:43:08;;;;;;;24.80;4.00;;;5.90;99.90;;;;;;5054635;28;20177;-60
2022/12/30 00:45:40;;;;;;;17.20;3.55;;;5.90;99.90;;;;;;5053703;28;20044;-60
2022/12/30 00:56:20;;;;;;;24.27;3.83;;;5.80;99.90;;;;;;5049878;28;20047;-60
2022/12/30 00:58:46;;;;;;;18.08;3.63;;;5.80;99.90;;;;;;5052792;28;20257;-60
2022/12/30 01:01:12;;;;;;;28.15;3.72;;;5.80;99.90;;;;;;5050023;28;20490;-59
2022/12/30 01:03:38;;;;;;;24.23;4.00;;;5.80;99.90;;;;;;5047877;28;20083;-60
2022/12/30 01:06:06;;;;;;;29.33;3.85;;;5.70;99.90;;;;;;5054312;28;20052;-60
2022/12/30 01:08:32;;;;;;;31.25;4.63;;;5.70;99.90;;;;;;5055909;28;20207;-60
2022/12/30 01:10:58;;;;;;;33.63;4.80;;;5.70;99.90;;;;;;5051531;28;20048;-60
2022/12/30 01:13:24;;;;;;;23.15;4.03;;;5.70;99.90;;;;;;5051262;28;20479;-60
2022/12/30 01:15:50;;;;;;;22.00;3.75;;;5.70;99.90;;;;;;5052736;28;20182;-60
2022/12/30 01:18:15;;;;;;;22.17;4.25;;;5.60;99.90;;;;;;5050277;28;20178;-61
2022/12/30 01:20:41;;;;;;;19.83;3.75;;;5.60;99.90;;;;;;5030035;28;20051;-59
2022/12/30 01:23:07;;;;;;;26.08;3.95;;;5.60;99.90;;;;;;5050064;28;20045;-60
2022/12/30 01:25:33;;;;;;;31.38;4.50;;;5.60;99.90;;;;;;5048358;28;20457;-60
2022/12/30 01:27:59;;;;;;;22.67;3.65;;;5.60;99.90;;;;;;5052408;28;20044;-61
2022/12/30 01:30:24;;;;;;;20.65;3.63;;;5.60;99.90;;;;;;5051581;28;20084;-60
2022/12/30 01:32:51;;;;;;;24.75;4.05;;;5.60;99.90;;;;;;5050072;28;20048;-60
2022/12/30 01:35:17;;;;;;;22.25;4.05;;;5.60;99.90;;;;;;5052713;28;20037;-61
2022/12/30 01:37:42;;;;;;;20.50;3.35;;;5.60;99.90;;;;;;5045935;28;20073;-60
2022/12/30 01:40:09;;;;;;;20.48;3.90;;;5.50;99.90;;;;;;5051805;28;20119;-60
2022/12/30 01:42:40;;;;;;;30.23;4.50;;;5.50;99.90;;;;;;5045484;28;20044;-58
2022/12/30 01:45:20;;;;;;;23.67;4.32;;;5.50;99.90;;;;;;5049588;28;20076;-60
2022/12/30 01:47:53;;;;;;;27.13;4.40;;;5.50;99.90;;;;;;5049490;28;20061;-60
2022/12/30 01:50:44;;;;;;;;;;;5.50;99.90;;;;;;5052329;28;20411;-60
2022/12/30 01:53:18;;;;;;;21.77;3.70;;;5.40;99.90;;;;;;5050152;28;19932;-60
2022/12/30 01:55:59;;;;;;;24.90;3.72;;;5.40;99.90;;;;;;5044289;28;20123;-60
2022/12/30 01:58:49;;;;;;;25.88;3.88;;;5.40;99.90;;;;;;5045120;28;20059;-60
2022/12/30 02:01:15;;;;;;;20.60;3.90;;;5.40;99.90;;;;;;5048696;28;20047;-60
2022/12/30 02:03:44;;;;;;;26.00;4.20;;;5.40;99.90;;;;;;5051440;28;20041;-60
2022/12/30 02:06:20;;;;;;;25.55;4.07;;;5.40;99.90;;;;;;5054253;28;20045;-59
2022/12/30 02:08:46;;;;;;;30.80;4.55;;;5.30;99.90;;;;;;5050384;28;20810;-60
2022/12/30 02:11:12;;;;;;;25.75;3.47;;;5.30;99.90;;;;;;5051720;28;20116;-60
2022/12/30 02:13:38;;;;;;;23.98;3.85;;;5.30;99.90;;;;;;5049386;28;20040;-60
2022/12/30 02:16:03;;;;;;;30.45;4.45;;;5.30;99.90;;;;;;5047971;28;20037;-60
2022/12/30 02:18:35;;;;;;;31.73;4.78;;;5.40;99.90;;;;;;5050604;28;20097;-60
2022/12/30 02:21:31;;;;;;;25.80;3.95;;;5.30;99.90;;;;;;5049525;28;20059;-61
2022/12/30 02:24:21;;;;;;;21.65;3.78;;;5.30;99.90;;;;;;5051116;28;20056;-60
2022/12/30 02:26:56;;;;;;;20.35;3.85;;;5.40;99.90;;;;;;5050880;28;20760;-60
2022/12/30 02:30:02;;;;;;;28.65;4.25;;;5.40;99.90;;;;;;5053425;28;20178;-60
2022/12/30 02:33:18;;;;;;;25.50;4.30;;;5.40;99.90;;;;;;5054285;28;20107;-60
2022/12/30 02:35:59;;;;;;;19.95;4.18;;;5.40;99.90;;;;;;5044337;28;20518;-60
2022/12/30 02:38:37;;;;;;;20.88;4.32;;;5.40;99.90;;;;;;5042641;28;20084;-60
2022/12/30 02:47:01;;;;;;;30.48;4.38;;;5.40;99.90;;;;;;5053495;28;20044;-60
2022/12/30 02:49:30;;;;;;;24.08;4.40;;;5.40;99.90;;;;;;5052347;28;20131;-58
2022/12/30 02:52:15;;;;;;;30.45;4.65;;;5.40;99.90;;;;;;5055345;28;20397;-60
2022/12/30 02:54:47;;;;;;;30.88;4.95;;;5.40;99.90;;;;;;5053089;28;20040;-60
2022/12/30 02:57:23;;;;;;;31.02;4.78;;;5.40;99.90;;;;;;5058482;28;20045;-59
2022/12/30 03:06:16;;;;;;;30.40;4.35;;;5.30;99.90;;;;;;5051132;28;20148;-60
2022/12/30 03:08:55;;;;;;;27.05;4.40;;;5.30;99.90;;;;;;5053833;28;20063;-59
2022/12/30 03:11:22;;;;;;;32.45;4.78;;;5.30;99.90;;;;;;5052944;28;20048;-60
2022/12/30 03:13:58;;;;;;;20.92;6.00;;;5.30;99.90;;;;;;5055065;28;20041;-60
2022/12/30 03:16:45;;;;;;;25.77;7.35;;;5.30;99.90;;;;;;5058128;28;20208;-60
2022/12/30 03:19:19;;;;;;;42.72;10.63;;;5.30;99.90;;;;;;5054215;28;20119;-60
2022/12/30 03:21:47;;;;;;;31.38;8.98;;;5.30;99.90;;;;;;5057441;28;20037;-59
2022/12/30 03:27:06;;;;;;;22.25;4.90;;;5.30;99.90;;;;;;5052035;28;20219;-60
2022/12/30 03:29:53;;;;;;;31.17;4.40;;;5.30;99.90;;;;;;5056253;28;20443;-60
2022/12/30 03:32:20;;;;;;;23.35;4.13;;;5.40;99.90;;;;;;5052569;28;20041;-60
2022/12/30 03:34:47;;;;;;;34.38;6.82;;;5.40;99.90;;;;;;5052878;28;20036;-60
2022/12/30 03:37:18;;;;;;;32.30;7.07;;;5.30;99.90;;;;;;5060993;28;20532;-60
2022/12/30 03:40:09;;;;;;;34.08;8.07;;;5.40;99.90;;;;;;5053033;28;20052;-60
2022/12/30 03:42:35;;;;;;;34.83;6.78;;;5.30;99.90;;;;;;5054257;28;20033;-60
2022/12/30 03:45:02;;;;;;;36.15;6.82;;;5.30;99.90;;;;;;5050887;28;20044;-59
2022/12/30 03:47:28;;;;;;;31.65;5.22;;;5.30;99.90;;;;;;5055322;28;20105;-59
2022/12/30 03:49:54;;;;;;;26.98;4.32;;;5.30;99.90;;;;;;5051969;28;20049;-60
2022/12/30 03:52:21;;;;;;;30.20;4.55;;;5.20;99.90;;;;;;5050090;28;20041;-60
2022/12/30 03:54:48;;;;;;;34.50;5.20;;;5.20;99.90;;;;;;5052534;28;20139;-60
2022/12/30 03:57:14;;;;;;;22.83;4.18;;;5.30;99.90;;;;;;5053124;28;20041;-60
2022/12/30 03:59:41;;;;;;;22.42;4.05;;;5.20;99.90;;;;;;5052136;28;20079;-59
2022/12/30 04:02:07;;;;;;;27.75;4.57;;;5.20;99.90;;;;;;5047426;28;20136;-60
2022/12/30 04:04:33;;;;;;;23.38;4.57;;;5.20;99.90;;;;;;5044637;28;20055;-60
2022/12/30 04:06:59;;;;;;;29.05;4.53;;;5.20;99.90;;;;;;5050464;28;20139;-58
2022/12/30 04:09:24;;;;;;;29.80;4.93;;;5.20;99.90;;;;;;5046828;28;20080;-60
2022/12/30 04:11:51;;;;;;;26.92;5.00;;;5.10;99.90;;;;;;5050712;28;20470;-60
2022/12/30 04:14:16;;;;;;;30.00;4.60;;;5.10;99.90;;;;;;5051903;28;20102;-60
2022/12/30 04:16:42;;;;;;;26.15;4.50;;;5.10;99.90;;;;;;5053136;28;20040;-60
2022/12/30 04:19:08;;;;;;;23.13;4.55;;;5.10;99.90;;;;;;5051117;28;20048;-60
2022/12/30 04:21:34;;;;;;;26.38;5.13;;;5.00;99.90;;;;;;5052985;28;20403;-60
2022/12/30 04:24:00;;;;;;;25.52;5.20;;;5.10;99.90;;;;;;5056074;28;20391;-60
2022/12/30 04:26:26;;;;;;;23.38;4.85;;;5.00;99.90;;;;;;5067682;28;20053;-58
2022/12/30 04:28:51;;;;;;;27.30;5.20;;;5.10;99.90;;;;;;5050966;28;20048;-60
2022/12/30 04:31:17;;;;;;;29.35;5.10;;;5.00;99.90;;;;;;5049844;28;20037;-59
2022/12/30 04:33:43;;;;;;;27.88;5.25;;;5.10;99.90;;;;;;5051679;28;20047;-59
2022/12/30 04:36:09;;;;;;;25.27;6.13;;;5.00;99.90;;;;;;5052978;28;20029;-59
2022/12/30 04:38:35;;;;;;;27.00;5.93;;;5.10;99.90;;;;;;5050181;28;20064;-60
2022/12/30 04:41:00;;;;;;;18.77;4.75;;;5.10;99.90;;;;;;5049760;28;20048;-60
2022/12/30 04:43:26;;;;;;;21.48;5.15;;;5.10;99.90;;;;;;5053000;28;20482;-60
2022/12/30 04:45:52;;;;;;;29.50;5.40;;;5.10;99.90;;;;;;5053989;28;20056;-60
2022/12/30 04:48:18;;;;;;;21.02;4.82;;;5.10;99.90;;;;;;5052442;28;20048;-60
2022/12/30 04:50:45;;;;;;;19.98;4.65;;;5.10;99.90;;;;;;5051489;28;20056;-60
2022/12/30 04:53:11;;;;;;;23.15;5.05;;;5.20;99.90;;;;;;5059688;28;20044;-58
2022/12/30 04:55:38;;;;;;;26.33;4.57;;;5.20;99.90;;;;;;5050204;28;20045;-60
2022/12/30 04:58:04;;;;;;;19.83;4.30;;;5.20;99.90;;;;;;5051283;28;20036;-61
2022/12/30 05:00:30;;;;;;;27.30;4.32;;;5.20;99.90;;;;;;5049944;28;20064;-60
2022/12/30 05:02:56;;;;;;;26.63;4.57;;;5.20;99.90;;;;;;5042606;28;20156;-60
2022/12/30 05:05:22;;;;;;;26.73;4.40;;;5.20;99.90;;;;;;5040083;28;20048;-60
2022/12/30 05:07:48;;;;;;;26.83;5.43;;;5.20;99.90;;;;;;5053434;28;20073;-60
2022/12/30 05:10:14;;;;;;;21.02;5.05;;;5.20;99.90;;;;;;5049642;28;20124;-60
2022/12/30 05:12:39;;;;;;;20.30;4.93;;;5.20;99.90;;;;;;5052233;28;20137;-60
2022/12/30 05:15:06;;;;;;;24.55;6.47;;;5.20;99.90;;;;;;5044978;28;20049;-59
2022/12/30 05:17:32;;;;;;;25.80;7.25;;;5.30;99.90;;;;;;5049522;28;20040;-60
2022/12/30 05:19:57;;;;;;;23.58;6.60;;;5.30;99.90;;;;;;5049043;28;20059;-59
2022/12/30 05:22:23;;;;;;;24.98;6.75;;;5.30;99.90;;;;;;5053414;28;20052;-60
2022/12/30 05:27:34;;;;;;;24.65;6.00;;;5.40;99.90;;;;;;5050887;28;20040;-60
2022/12/30 05:29:59;;;;;;;22.38;6.50;;;5.40;99.90;;;;;;5045786;28;20683;-59
2022/12/30 05:32:25;;;;;;;24.10;6.70;;;5.40;99.90;;;;;;5046782;28;20044;-60
2022/12/30 05:34:51;;;;;;;24.50;6.78;;;5.50;99.90;;;;;;5050090;28;20052;-59
2022/12/30 05:37:17;;;;;;;24.95;8.32;;;5.50;99.90;;;;;;5048520;28;20565;-59
2022/12/30 05:39:43;;;;;;;33.47;7.70;;;5.50;99.90;;;;;;5053829;28;20056;-60
2022/12/30 05:42:08;;;;;;;23.75;7.88;;;5.50;99.90;;;;;;5053367;28;20052;-60
2022/12/30 05:44:34;;;;;;;27.27;8.10;;;5.50;99.90;;;;;;5046338;28;20053;-60
2022/12/30 05:47:00;;;;;;;24.75;8.30;;;5.40;99.90;;;;;;5047047;28;21022;-60
2022/12/30 05:49:26;;;;;;;31.00;7.95;;;5.50;99.90;;;;;;5047354;28;20118;-60
2022/12/30 05:51:52;;;;;;;27.40;7.57;;;5.50;99.90;;;;;;5046121;28;20087;-60
2022/12/30 05:54:17;;;;;;;26.55;7.78;;;5.50;99.90;;;;;;5053271;28;20041;-60
2022/12/30 05:56:43;;;;;;;20.95;7.47;;;5.50;99.90;;;;;;5052268;28;20179;-60
2022/12/30 05:59:09;;;;;;;24.95;7.97;;;5.50;99.90;;;;;;5047457;28;20069;-60
2022/12/30 06:01:36;;;;;;;24.60;7.95;;;5.50;99.90;;;;;;5048156;28;20044;-60
2022/12/30 06:04:02;;;;;;;27.20;7.65;;;5.50;99.90;;;;;;5045047;28;20559;-60
2022/12/30 06:06:28;;;;;;;21.15;7.85;;;5.50;99.90;;;;;;5045845;28;20053;-60
2022/12/30 06:08:54;;;;;;;23.02;7.95;;;5.50;99.90;;;;;;5040105;28;20533;-59
2022/12/30 06:11:20;;;;;;;25.58;7.95;;;5.50;99.90;;;;;;5050307;28;20107;-60
2022/12/30 06:13:46;;;;;;;23.52;7.90;;;5.60;99.90;;;;;;5032175;28;20041;-60
2022/12/30 06:16:12;;;;;;;19.25;7.15;;;5.50;99.90;;;;;;5043927;28;20048;-60
2022/12/30 06:18:38;;;;;;;22.45;6.70;;;5.50;99.90;;;;;;5052645;28;20114;-60
2022/12/30 06:21:04;;;;;;;22.65;7.18;;;5.40;99.90;;;;;;5050553;28;20087;-60
2022/12/30 06:23:29;;;;;;;22.40;6.13;;;5.40;99.90;;;;;;5049241;28;20057;-60
2022/12/30 06:25:57;;;;;;;22.48;6.38;;;5.40;99.90;;;;;;5044586;28;20505;-59
2022/12/30 06:28:25;;;;;;;18.10;6.63;;;5.30;99.90;;;;;;5048922;28;20266;-60
2022/12/30 06:30:51;;;;;;;23.25;5.97;;;5.30;99.90;;;;;;5046162;28;20051;-59
2022/12/30 06:33:18;;;;;;;17.85;4.75;;;5.20;99.90;;;;;;5053322;28;20048;-60
2022/12/30 06:35:45;;;;;;;19.63;5.60;;;5.20;99.90;;;;;;5051147;28;20079;-60
2022/12/30 06:38:11;;;;;;;16.10;4.57;;;5.20;99.90;;;;;;5054590;28;20483;-60
2022/12/30 06:40:37;;;;;;;27.80;5.55;;;5.10;99.90;;;;;;5053344;28;20076;-59
2022/12/30 06:43:03;;;;;;;17.02;4.55;;;5.10;99.90;;;;;;5052095;28;20078;-60
2022/12/30 06:45:29;;;;;;;18.67;4.65;;;5.10;99.90;;;;;;5051958;28;20056;-60
2022/12/30 06:47:54;;;;;;;24.33;5.25;;;5.00;99.90;;;;;;5051635;28;20056;-60
2022/12/30 06:50:20;;;;;;;20.77;4.57;;;5.00;99.90;;;;;;5051964;28;20471;-60
2022/12/30 06:52:46;;;;;;;19.38;4.47;;;5.00;99.90;;;;;;5052825;28;20068;-58
2022/12/30 06:55:12;;;;;;;18.10;4.38;;;5.00;99.90;;;;;;5053180;28;20047;-60
2022/12/30 06:57:38;;;;;;;18.73;4.60;;;5.00;99.90;;;;;;5032248;28;20441;-60
2022/12/30 07:00:06;;;;;;;19.33;5.00;;;4.90;99.90;;;;;;5048617;28;20037;-60
2022/12/30 07:02:32;;;;;;;20.02;4.47;;;4.90;99.90;;;;;;5049267;28;20453;-60
2022/12/30 07:04:57;;;;;;;18.92;4.40;;;4.90;99.90;;;;;;5047998;28;20075;-60
2022/12/30 07:07:23;;;;;;;18.83;4.60;;;4.90;99.90;;;;;;5051230;28;20044;-60
2022/12/30 07:09:49;;;;;;;17.95;4.35;;;4.90;99.90;;;;;;5043579;28;20515;-60
2022/12/30 07:12:15;;;;;;;14.10;3.92;;;4.90;99.90;;;;;;5046200;28;20127;-60
2022/12/30 07:14:41;;;;;;;22.95;4.47;;;4.90;99.90;;;;;;5049101;28;20102;-60
2022/12/30 07:17:07;;;;;;;17.10;4.20;;;4.80;99.90;;;;;;5037037;28;20119;-60
2022/12/30 07:19:32;;;;;;;20.83;4.30;;;4.80;99.90;;;;;;5048479;28;20041;-60
2022/12/30 07:21:58;;;;;;;18.17;4.50;;;4.80;99.90;;;;;;5053244;28;20398;-60
2022/12/30 07:24:24;;;;;;;23.98;4.30;;;4.80;99.90;;;;;;5052231;28;20083;-58
2022/12/30 07:26:50;;;;;;;15.35;3.53;;;4.80;99.90;;;;;;5052120;28;20049;-60
2022/12/30 07:29:16;;;;;;;25.52;3.90;;;4.80;99.90;;;;;;5052013;28;20102;-59
2022/12/30 07:31:42;;;;;;;18.25;3.63;;;4.70;99.90;;;;;;5048061;28;20122;-60
2022/12/30 07:34:07;;;;;;;19.10;3.60;;;4.70;99.90;;;;;;5049019;28;20040;-60
2022/12/30 07:36:33;;;;;;;18.00;3.60;;;4.70;99.90;;;;;;5053179;28;20379;-60
2022/12/30 07:39:00;;;;;;;19.90;3.65;;;4.70;99.90;;;;;;5051548;28;20486;-60
2022/12/30 07:41:27;;;;;;;18.63;4.00;;;4.60;99.90;;;;;;5050789;28;20081;-60
2022/12/30 07:43:53;;;;;;;18.58;3.72;;;4.70;99.90;;;;;;5048650;28;20147;-59
2022/12/30 07:46:19;;;;;;;20.98;4.20;;;4.70;99.90;;;;;;5050025;28;20046;-60
2022/12/30 07:48:45;;;;;;;14.02;3.58;;;4.60;99.90;;;;;;5046864;28;20117;-59
2022/12/30 07:51:14;;;;;;;18.15;3.42;;;4.60;99.90;;;;;;5046396;28;20094;-59
2022/12/30 07:53:41;;;;;;;18.38;3.63;;;4.60;99.90;;;;;;5044703;28;20507;-61
2022/12/30 07:56:08;;;;;;;17.25;3.83;;;4.60;99.90;;;;;;5049126;28;20127;-60
2022/12/30 07:58:34;;;;;;;23.67;4.60;;;4.60;99.90;;;;;;5054522;28;20139;-60
2022/12/30 08:01:18;;;;;;;18.63;3.67;;;4.60;99.90;;;;;;5049760;28;20489;-59
2022/12/30 08:03:44;;;;;;;22.08;3.97;;;4.60;99.90;;;;;;5058440;28;20072;-60
2022/12/30 08:06:13;;;;;;;19.00;4.03;;;4.60;99.90;;;;;;5051534;28;20467;-60
2022/12/30 08:08:39;;;;;;;21.35;3.45;;;4.60;99.90;;;;;;5047354;28;20052;-60
2022/12/30 08:11:06;;;;;;;17.92;3.30;;;4.60;99.90;;;;;;5047759;28;20076;-60
2022/12/30 08:13:34;;;;;;;18.92;3.78;;;4.60;99.90;;;;;;5042715;28;20173;-60
2022/12/30 08:16:05;;;;;;;25.27;4.07;;;4.60;99.90;;;;;;5038981;28;20212;-60
2022/12/30 08:18:31;;;;;;;21.17;3.60;;;4.60;99.90;;;;;;5047415;28;20128;-60
2022/12/30 08:21:02;;;;;;;20.30;3.85;;;4.60;99.90;;;;;;5055493;28;20049;-60
2022/12/30 08:23:29;;;;;;;24.15;4.82;;;4.60;99.90;;;;;;5049232;28;20072;-60
2022/12/30 08:25:55;;;;;;;15.63;3.67;;;4.60;99.90;;;;;;5047223;28;20044;-60
2022/12/30 08:28:21;;;;;;;16.05;3.80;;;4.60;99.90;;;;;;5060990;28;20110;-60
2022/12/30 08:30:46;;;;;;;20.90;4.55;;;4.60;99.90;;;;;;5049794;28;20106;-60
2022/12/30 08:33:12;;;;;;;19.55;3.90;;;4.60;99.90;;;;;;5049940;28;20052;-59
2022/12/30 08:35:38;;;;;;;21.92;3.65;;;4.60;99.90;;;;;;5044708;28;20419;-59
2022/12/30 08:38:04;;;;;;;19.17;4.05;;;4.70;99.90;;;;;;5043887;28;20037;-60
2022/12/30 08:40:33;;;;;;;18.73;4.00;;;4.60;99.90;;;;;;5057326;28;20387;-60
2022/12/30 08:42:59;;;;;;;17.50;3.75;;;4.70;99.90;;;;;;5053085;28;20415;-60
2022/12/30 08:45:26;;;;;;;15.70;3.75;;;4.70;99.90;;;;;;5045539;28;20048;-60
2022/12/30 08:47:52;;;;;;;24.60;4.50;;;4.70;99.90;;;;;;5044206;28;20971;-60
2022/12/30 08:50:18;;;;;;;21.38;4.03;;;4.70;99.90;;;;;;5044812;28;20041;-60
2022/12/30 08:52:43;;;;;;;19.10;4.40;;;4.70;99.90;;;;;;5048539;28;20045;-60
2022/12/30 08:55:09;;;;;;;16.42;4.28;;;4.70;99.90;;;;;;5049723;28;20041;-60
2022/12/30 08:57:39;;;;;;;19.20;4.32;;;4.70;99.90;;;;;;5046545;28;20143;-60
2022/12/30 09:00:06;;;;;;;17.00;3.88;;;4.80;99.90;;;;;;5040853;28;20166;-60
2022/12/30 09:02:34;;;;;;;24.08;4.05;;;4.80;99.90;;;;;;5042284;28;20382;-60
2022/12/30 09:05:00;;;;;;;14.95;4.10;;;4.80;99.90;;;;;;5046565;28;20052;-59
2022/12/30 09:07:26;;;;;;;19.38;3.75;;;4.90;99.90;;;;;;5050779;28;20078;-59
2022/12/30 09:09:52;;;;;;;19.58;4.10;;;4.90;99.90;;;;;;5048633;28;20123;-59
2022/12/30 09:12:18;;;;;;;14.90;4.03;;;4.90;99.90;;;;;;5051616;28;20033;-60
2022/12/30 09:14:44;;;;;;;17.48;3.60;;;4.90;99.90;;;;;;5051222;28;20838;-60
2022/12/30 09:17:10;;;;;;;25.02;3.95;;;4.90;99.90;;;;;;5047716;28;20223;-59
2022/12/30 09:19:36;;;;;;;14.18;3.92;;;5.00;99.90;;;;;;5050694;28;20147;-60
2022/12/30 09:22:02;;;;;;;14.82;3.70;;;5.00;99.90;;;;;;5049494;28;20507;-58
2022/12/30 09:24:27;;;;;;;22.85;4.15;;;5.00;99.90;;;;;;5051163;28;20050;-59
2022/12/30 09:26:53;;;;;;;20.77;4.05;;;5.00;99.90;;;;;;5045938;28;20127;-60
2022/12/30 09:29:19;;;;;;;23.20;3.90;;;5.10;99.90;;;;;;5049831;28;20106;-59
2022/12/30 09:31:45;;;;;;;13.57;3.38;;;5.10;99.90;;;;;;5036754;28;20136;-60
2022/12/30 09:34:12;;;;;;;26.65;3.60;;;5.10;99.90;;;;;;5041354;28;22353;-60
2022/12/30 09:36:37;;;;;;;16.52;3.65;;;5.10;99.90;;;;;;5035178;28;20049;-60
2022/12/30 09:39:03;;;;;;;18.83;3.97;;;5.10;99.90;;;;;;5039938;28;20048;-58
2022/12/30 09:44:43;;;;;;;17.27;3.67;;;5.20;99.90;;;;;;5038073;28;20047;-60
2022/12/30 09:47:21;;;;;;;16.60;3.70;;;5.20;99.90;;;;;;5039481;28;20044;-59
2022/12/30 09:49:52;;;;;;;17.75;4.07;;;5.20;99.90;;;;;;5036646;28;20068;-59
2022/12/30 09:52:29;;;;;;;16.33;3.42;;;5.20;99.90;;;;;;5034683;28;20126;-60
2022/12/30 09:55:06;;;;;;;18.50;3.72;;;5.20;99.90;;;;;;5039903;28;20308;-60
2022/12/30 09:57:35;;;;;;;21.73;3.63;;;5.30;99.90;;;;;;5038071;28;20137;-60
2022/12/30 10:00:17;;;;;;;19.83;3.80;;;5.30;99.90;;;;;;5034029;28;20114;-60
2022/12/30 10:03:04;;;;;;;22.30;3.88;;;5.40;99.90;;;;;;5034530;28;20167;-60
2022/12/30 10:05:45;;;;;;;16.13;4.00;;;5.40;99.90;;;;;;5034473;28;20049;-60
2022/12/30 10:08:39;;;;;;;15.38;3.20;;;5.40;99.90;;;;;;5034195;28;20775;-59
2022/12/30 10:11:14;;;;;;;19.25;4.22;;;5.50;99.90;;;;;;5049213;28;20064;-59
2022/12/30 10:13:46;;;;;;;15.27;3.50;;;5.50;99.90;;;;;;5035180;28;20935;-59
2022/12/30 10:16:22;;;;;;;20.20;3.22;;;5.50;99.90;;;;;;5030300;28;20052;-59
2022/12/30 10:19:04;;;;;;;14.00;3.15;;;5.60;99.90;;;;;;5040937;28;20044;-59
2022/12/30 10:21:32;;;;;;;12.93;3.22;;;5.60;99.90;;;;;;5036326;28;20440;-60
2022/12/30 10:24:23;;;;;;;14.43;4.60;;;5.70;99.90;;;;;;5041108;28;20044;-59
2022/12/30 10:26:50;;;;;;;12.93;3.13;;;5.70;99.90;;;;;;5035663;28;20056;-60
2022/12/30 10:29:19;;;;;;;14.00;3.58;;;5.70;99.90;;;;;;5036841;28;20119;-60
2022/12/30 10:31:47;;;;;;;13.63;3.50;;;5.80;99.90;;;;;;5033766;28;20048;-60
2022/12/30 10:34:17;;;;;;;13.63;2.90;;;5.80;99.90;;;;;;5037330;28;20044;-60
2022/12/30 10:36:43;;;;;;;15.93;3.17;;;5.90;99.90;;;;;;5038667;28;20040;-60
2022/12/30 10:39:17;;;;;;;12.85;3.72;;;5.90;99.90;;;;;;5037075;28;20114;-60
2022/12/30 10:42:12;;;;;;;15.70;3.60;;;6.00;99.90;;;;;;5039184;28;20040;-59
2022/12/30 10:45:04;;;;;;;13.68;3.20;;;6.00;99.90;;;;;;5031980;28;21142;-60
2022/12/30 10:48:08;;;;;;;12.75;3.25;;;6.00;99.90;;;;;;5038471;28;20057;-60
2022/12/30 10:50:40;;;;;;;14.10;2.80;;;6.10;99.90;;;;;;5041682;28;20088;-60
2022/12/30 10:53:14;;;;;;;14.82;3.55;;;6.10;99.90;;;;;;5042157;28;20040;-59
2022/12/30 10:55:47;;;;;;;10.93;3.28;;;6.20;99.90;;;;;;5045897;28;20063;-60
2022/12/30 10:58:16;;;;;;;;;;;6.20;99.90;;;;;;5043669;28;20087;-60
2022/12/30 11:00:44;;;;;;;15.43;2.67;;;6.20;99.90;;;;;;5041991;28;19931;-60
2022/12/30 11:03:29;;;;;;;14.05;2.85;;;6.30;99.90;;;;;;5042031;28;20051;-59
2022/12/30 11:05:55;;;;;;;11.73;2.65;;;6.40;99.90;;;;;;5042897;28;20048;-60
2022/12/30 11:08:27;;;;;;;8.60;2.70;;;6.40;99.90;;;;;;5041121;28;20033;-60
2022/12/30 11:11:06;;;;;;;15.52;3.38;;;6.40;99.90;;;;;;5042805;28;20407;-60
2022/12/30 11:16:30;;;;;;;14.07;3.20;;;6.50;99.90;;;;;;5041993;28;20044;-60
2022/12/30 11:18:59;;;;;;;11.55;2.22;;;6.50;99.90;;;;;;5040633;28;20067;-59
2022/12/30 11:21:30;;;;;;;8.82;2.53;;;6.50;99.90;;;;;;5042209;28;20048;-60
2022/12/30 11:24:01;;;;;;;9.85;2.42;;;6.50;99.90;;;;;;5040224;28;20125;-61
2022/12/30 11:26:30;;;;;;;8.23;2.30;;;6.50;99.90;;;;;;5040155;28;20150;-60
2022/12/30 11:29:01;;;;;;;12.75;3.15;;;6.50;99.90;;;;;;5041365;28;20052;-60
2022/12/30 11:31:34;;;;;;;9.30;2.28;;;6.50;99.90;;;;;;5050957;28;20063;-61
2022/12/30 11:34:03;;;;;;;7.97;2.40;;;6.60;99.90;;;;;;5055904;28;20458;-60
2022/12/30 11:36:29;;;;;;;9.63;2.80;;;6.60;99.90;;;;;;5050229;28;20111;-61
2022/12/30 11:39:03;;;;;;;7.20;2.20;;;6.60;99.90;;;;;;5047656;28;20049;-60
2022/12/30 11:41:30;;;;;;;8.10;2.53;;;6.70;99.90;;;;;;5040405;28;20063;-61
2022/12/30 11:43:56;;;;;;;7.95;2.72;;;6.70;99.90;;;;;;5044682;28;20130;-61
2022/12/30 11:46:28;;;;;;;9.20;2.50;;;6.70;99.90;;;;;;5036538;28;20737;-61
2022/12/30 11:49:36;;;;;;;7.28;1.73;;;6.90;99.90;;;;;;5046086;28;20178;-61
2022/12/30 11:52:35;;;;;;;5.75;1.88;;;6.80;99.90;;;;;;5028313;28;20082;-60
2022/12/30 11:55:04;;;;;;;7.65;1.73;;;6.90;99.90;;;;;;5032184;28;20049;-61
2022/12/30 11:57:32;;;;;;;8.05;2.17;;;6.80;99.90;;;;;;5033819;28;20070;-61
2022/12/30 12:00:06;;;;;;;73.68;46.03;;;6.90;99.90;;;;;;5042429;28;20790;-61
2022/12/30 12:02:38;;;;;;;7.57;2.13;;;6.90;99.90;;;;;;5036229;28;20064;-61
2022/12/30 12:05:28;;;;;;;6.93;2.28;;;7.00;99.90;;;;;;5037332;28;20062;-60
2022/12/30 12:08:16;;;;;;;8.32;2.00;;;7.00;99.90;;;;;;5041444;28;20075;-60
2022/12/30 12:10:46;;;;;;;11.43;2.45;;;7.00;99.90;;;;;;5022535;28;20502;-61
2022/12/30 12:13:45;;;;;;;14.13;3.42;;;7.10;99.90;;;;;;5044613;28;20103;-61
2022/12/30 12:16:41;;;;;;;7.78;2.40;;;7.10;99.90;;;;;;5041809;28;20081;-61
2022/12/30 12:19:25;;;;;;;8.15;2.28;;;7.10;99.90;;;;;;5041303;28;20423;-61
2022/12/30 12:21:56;;;;;;;8.65;2.22;;;7.20;99.90;;;;;;5045456;28;20082;-61
2022/12/30 12:24:44;;;;;;;9.80;2.40;;;7.20;99.90;;;;;;5039552;28;20140;-61
2022/12/30 12:27:19;;;;;;;6.88;2.47;;;7.20;99.90;;;;;;5025891;28;20147;-60
2022/12/30 12:29:45;;;;;;;4.50;1.73;;;7.20;99.90;;;;;;5044017;28;22198;-61
2022/12/30 12:32:17;;;;;;;5.80;1.80;;;7.30;99.90;;;;;;5041439;28;20475;-61
2022/12/30 12:34:52;;;;;;;9.68;2.28;;;7.30;99.90;;;;;;5035850;28;20107;-61
2022/12/30 12:37:31;;;;;;;9.98;2.28;;;7.30;99.90;;;;;;5029339;28;20356;-61
2022/12/30 12:40:18;;;;;;;5.93;2.17;;;7.30;99.90;;;;;;5043955;28;20055;-61
2022/12/30 12:43:15;;;;;;;8.80;2.67;;;7.40;99.90;;;;;;5043801;28;20174;-61
2022/12/30 12:46:01;;;;;;;8.27;1.83;;;7.40;99.90;;;;;;5043829;28;20908;-61
2022/12/30 12:48:58;;;;;;;6.30;1.88;;;7.40;99.90;;;;;;5045312;28;20125;-60
2022/12/30 12:52:05;;;;;;;5.25;1.65;;;7.50;99.90;;;;;;5029908;28;20219;-61
2022/12/30 12:55:01;;;;;;;6.32;1.83;;;7.50;99.90;;;;;;5032457;28;20064;-60
2022/12/30 12:57:58;;;;;;;8.05;2.10;;;7.60;99.90;;;;;;5036988;28;20043;-62
2022/12/30 13:00:49;;;;;;;7.68;1.95;;;7.60;99.90;;;;;;5037893;28;20044;-61
2022/12/30 13:03:53;;;;;;;5.38;1.73;;;7.60;99.90;;;;;;5043125;28;20053;-61
2022/12/30 13:06:43;;;;;;;5.88;1.90;;;7.60;99.90;;;;;;5036427;28;20391;-59
2022/12/30 13:09:26;;;;;;;6.18;1.80;;;7.70;99.90;;;;;;5035681;28;20176;-59
2022/12/30 13:12:14;;;;;;;13.63;2.38;;;7.70;99.90;;;;;;5033606;28;20051;-58
2022/12/30 13:14:47;;;;;;;5.93;1.85;;;7.70;99.90;;;;;;5039710;28;20218;-59
2022/12/30 13:17:30;;;;;;;7.88;2.10;;;7.80;99.90;;;;;;5035122;28;20080;-59
2022/12/30 13:20:13;;;;;;;7.80;1.95;;;7.80;99.90;;;;;;5033273;28;20060;-59
2022/12/30 13:22:39;;;;;;;6.35;1.70;;;7.80;99.90;;;;;;5028166;28;20636;-57
2022/12/30 13:25:18;;;;;;;7.38;2.85;;;7.80;99.90;;;;;;5037923;28;20414;-59
2022/12/30 13:27:46;;;;;;;6.75;1.92;;;7.80;99.90;;;;;;5035998;28;20060;-59
2022/12/30 13:30:16;;;;;;;6.20;2.20;;;7.80;99.90;;;;;;5028327;28;20127;-59
2022/12/30 13:33:02;;;;;;;5.50;1.90;;;7.90;99.90;;;;;;5026830;28;20053;-59
2022/12/30 13:35:57;;;;;;;9.35;2.10;;;7.90;99.90;;;;;;5036214;28;20048;-58
2022/12/30 13:38:51;;;;;;;14.93;2.20;;;7.90;99.90;;;;;;5030833;28;20495;-59
2022/12/30 13:41:19;;;;;;;6.35;1.98;;;7.90;99.90;;;;;;5038095;28;20063;-60
2022/12/30 13:44:00;;;;;;;8.23;2.08;;;8.00;99.90;;;;;;5037592;28;20052;-59
2022/12/30 13:46:30;;;;;;;5.95;2.10;;;8.00;99.90;;;;;;5032599;28;20060;-59
2022/12/30 13:49:11;;;;;;;7.25;1.90;;;8.00;99.90;;;;;;5032496;28;20056;-59
2022/12/30 13:51:37;;;;;;;6.65;1.85;;;8.00;99.90;;;;;;5035263;28;20845;-57
2022/12/30 13:54:14;;;;;;;6.68;1.50;;;8.10;99.90;;;;;;5036179;28;20079;-59
2022/12/30 13:56:47;;;;;;;8.07;2.10;;;8.10;99.90;;;;;;5036338;28;20137;-58
2022/12/30 13:59:21;;;;;;;8.80;2.40;;;8.10;99.90;;;;;;5037532;28;20155;-59
2022/12/30 14:01:47;;;;;;;5.45;1.83;;;8.20;99.90;;;;;;5037907;28;20098;-59
2022/12/30 14:04:27;;;;;;;7.55;1.88;;;8.20;99.90;;;;;;5035430;28;21569;-59
2022/12/30 14:06:54;;;;;;;5.25;1.80;;;8.20;99.90;;;;;;5032198;28;20048;-59